createdAt,value
2017-10-01T00:00:00.881Z,98.00
2017-10-01T00:02:29.208Z,97.70
2017-10-01T00:04:58.324Z,97.40
2017-10-01T00:07:27.561Z,98.70
2017-10-01T00:09:56.036Z,98.70
2017-10-01T00:12:24.334Z,97.60
2017-10-01T00:14:52.635Z,98.90
2017-10-01T00:17:20.989Z,99.10
2017-10-01T00:19:49.289Z,99.70
2017-10-01T00:22:17.621Z,99.90
2017-10-01T00:24:45.917Z,99.90
2017-10-01T00:27:14.216Z,99.90
2017-10-01T00:29:43.180Z,99.90
2017-10-01T00:32:11.571Z,99.90
2017-10-01T00:34:39.902Z,99.90
2017-10-01T00:37:08.237Z,99.90
2017-10-01T00:39:37.328Z,99.90
2017-10-01T00:42:05.661Z,99.90
2017-10-01T00:44:34.764Z,99.90
2017-10-01T00:47:03.060Z,99.90
2017-10-01T00:49:31.404Z,99.90
2017-10-01T00:51:59.700Z,99.90
2017-10-01T00:54:28.773Z,98.50
2017-10-01T00:56:57.097Z,98.40
2017-10-01T00:59:25.530Z,98.50
2017-10-01T01:01:53.870Z,97.90
2017-10-01T01:04:22.175Z,98.20
2017-10-01T01:06:50.480Z,98.50
2017-10-01T01:09:18.829Z,99.30
2017-10-01T01:11:47.135Z,99.10
2017-10-01T01:14:15.488Z,98.50
2017-10-01T01:16:44.576Z,97.60
2017-10-01T01:19:13.771Z,97.60
2017-10-01T01:21:42.078Z,98.10
2017-10-01T01:24:11.237Z,99.90
2017-10-01T01:26:39.569Z,99.90
2017-10-01T01:29:07.877Z,99.70
2017-10-01T01:31:36.322Z,99.90
2017-10-01T01:34:04.655Z,99.90
2017-10-01T01:36:33.013Z,99.90
2017-10-01T01:39:02.096Z,99.90
2017-10-01T01:41:30.432Z,99.90
2017-10-01T01:43:58.733Z,99.90
2017-10-01T01:46:27.178Z,99.90
2017-10-01T01:48:55.513Z,99.90
2017-10-01T01:51:23.808Z,99.90
2017-10-01T01:53:52.100Z,99.90
2017-10-01T01:56:20.435Z,99.90
2017-10-01T01:58:48.741Z,99.90
2017-10-01T02:01:17.077Z,99.90
2017-10-01T02:03:45.451Z,99.90
2017-10-01T02:06:13.753Z,99.90
2017-10-01T02:08:42.081Z,99.90
2017-10-01T02:11:10.422Z,99.90
2017-10-01T02:13:39.492Z,99.90
2017-10-01T02:16:08.589Z,99.90
2017-10-01T02:18:36.941Z,99.90
2017-10-01T02:21:05.238Z,99.90
2017-10-01T02:23:33.550Z,99.90
2017-10-01T02:26:02.633Z,99.90
2017-10-01T02:28:30.962Z,99.90
2017-10-01T02:30:59.273Z,99.90
2017-10-01T02:33:27.626Z,99.90
2017-10-01T02:35:56.078Z,99.90
2017-10-01T02:38:24.526Z,99.90
2017-10-01T02:40:52.913Z,99.90
2017-10-01T02:43:22.015Z,99.90
2017-10-01T02:45:50.313Z,99.90
2017-10-01T02:48:18.629Z,99.90
2017-10-01T02:50:46.962Z,99.90
2017-10-01T02:53:15.266Z,99.90
2017-10-01T02:55:44.299Z,99.90
2017-10-01T02:58:12.628Z,99.90
2017-10-01T03:00:41.180Z,99.90
2017-10-01T03:03:09.508Z,99.90
2017-10-01T03:05:37.805Z,99.90
2017-10-01T03:08:06.096Z,99.90
2017-10-01T03:10:35.207Z,99.90
2017-10-01T03:13:03.506Z,99.90
2017-10-01T03:15:31.841Z,99.90
2017-10-01T03:18:00.133Z,99.90
2017-10-01T03:20:28.453Z,99.90
2017-10-01T03:22:56.789Z,99.90
2017-10-01T03:25:25.882Z,99.90
2017-10-01T03:27:54.201Z,99.90
2017-10-01T03:30:23.314Z,99.90
2017-10-01T03:32:51.634Z,99.90
2017-10-01T03:35:20.749Z,99.90
2017-10-01T03:37:49.038Z,99.90
2017-10-01T03:40:17.347Z,99.90
2017-10-01T03:42:45.692Z,99.90
2017-10-01T03:45:14.026Z,99.90
2017-10-01T03:47:42.344Z,99.90
2017-10-01T03:50:10.663Z,99.90
2017-10-01T03:52:38.960Z,99.90
2017-10-01T03:55:07.293Z,99.90
2017-10-01T03:57:36.360Z,99.90
2017-10-01T04:00:05.462Z,99.90
2017-10-01T04:02:33.746Z,99.90
2017-10-01T04:05:02.055Z,99.90
2017-10-01T04:07:30.390Z,99.90
2017-10-01T04:09:58.683Z,99.90
2017-10-01T04:12:27.745Z,99.90
2017-10-01T04:14:56.819Z,99.90
2017-10-01T04:17:25.888Z,99.90
2017-10-01T04:19:54.210Z,99.90
2017-10-01T04:22:22.529Z,99.90
2017-10-01T04:24:51.677Z,99.90
2017-10-01T04:27:20.006Z,99.90
2017-10-01T04:29:48.288Z,99.90
2017-10-01T04:32:16.581Z,99.90
2017-10-01T04:34:44.895Z,99.90
2017-10-01T04:37:13.948Z,99.90
2017-10-01T04:39:42.600Z,99.90
2017-10-01T04:42:10.898Z,99.90
2017-10-01T04:44:40.236Z,99.90
2017-10-01T04:47:08.546Z,99.90
2017-10-01T04:49:36.841Z,99.90
2017-10-01T04:52:05.184Z,99.90
2017-10-01T04:54:33.483Z,99.90
2017-10-01T04:57:01.798Z,99.90
2017-10-01T04:59:30.120Z,99.90
2017-10-01T05:01:58.450Z,99.90
2017-10-01T05:04:27.544Z,99.90
2017-10-01T05:06:55.847Z,99.90
2017-10-01T05:09:24.148Z,99.90
2017-10-01T05:11:52.444Z,99.90
2017-10-01T05:14:21.537Z,99.90
2017-10-01T05:16:49.827Z,99.90
2017-10-01T05:19:18.119Z,99.90
2017-10-01T05:21:47.198Z,99.90
2017-10-01T05:24:15.500Z,99.90
2017-10-01T05:26:44.776Z,99.90
2017-10-01T05:29:13.082Z,99.90
2017-10-01T05:31:41.364Z,99.90
2017-10-01T05:34:09.672Z,99.90
2017-10-01T05:36:38.734Z,99.90
2017-10-01T05:39:07.829Z,99.90
2017-10-01T05:41:36.126Z,99.90
2017-10-01T05:46:35.441Z,99.90
2017-10-01T05:49:04.497Z,99.90
2017-10-01T05:51:33.577Z,99.90
2017-10-01T05:54:02.633Z,99.90
2017-10-01T05:56:31.725Z,99.90
2017-10-01T05:59:00.271Z,99.90
2017-10-01T06:01:28.557Z,99.90
2017-10-01T06:03:57.414Z,99.90
2017-10-01T06:06:25.777Z,99.90
2017-10-01T06:08:54.098Z,99.90
2017-10-01T06:11:22.389Z,99.90
2017-10-01T06:13:50.735Z,99.90
2017-10-01T06:16:19.044Z,99.90
2017-10-01T06:18:48.104Z,99.90
2017-10-01T06:21:16.405Z,99.90
2017-10-01T06:23:44.693Z,99.70
2017-10-01T06:26:13.138Z,99.00
2017-10-01T06:28:41.458Z,97.60
2017-10-01T06:31:09.826Z,97.40
2017-10-01T06:33:38.157Z,97.90
2017-10-01T06:36:07.173Z,95.90
2017-10-01T06:38:35.488Z,91.90
2017-10-01T06:41:03.835Z,90.30
2017-10-01T06:43:32.159Z,86.70
2017-10-01T06:46:00.461Z,87.70
2017-10-01T06:48:28.757Z,86.40
2017-10-01T06:50:58.071Z,83.00
2017-10-01T06:53:26.398Z,82.90
2017-10-01T06:55:55.739Z,78.80
2017-10-01T06:58:24.030Z,79.40
2017-10-01T07:00:53.124Z,78.10
2017-10-01T07:03:21.442Z,78.00
2017-10-01T07:05:50.506Z,78.60
2017-10-01T07:08:18.873Z,78.50
2017-10-01T07:10:47.940Z,83.40
2017-10-01T07:13:16.267Z,83.40
2017-10-01T07:15:44.601Z,85.50
2017-10-01T07:18:12.897Z,86.80
2017-10-01T07:20:41.221Z,87.80
2017-10-01T07:23:09.523Z,90.80
2017-10-01T07:25:37.836Z,91.50
2017-10-01T07:28:06.899Z,93.60
2017-10-01T07:30:36.727Z,95.00
2017-10-01T07:33:06.060Z,95.00
2017-10-01T07:35:34.356Z,94.30
2017-10-01T07:38:02.688Z,96.00
2017-10-01T07:40:30.981Z,96.10
2017-10-01T07:42:59.277Z,98.10
2017-10-01T07:45:27.620Z,96.40
2017-10-01T07:47:56.155Z,97.80
2017-10-01T07:50:24.474Z,97.10
2017-10-01T07:52:52.774Z,97.50
2017-10-01T07:55:21.100Z,96.80
2017-10-01T07:57:49.399Z,96.00
2017-10-01T08:00:17.721Z,96.00
2017-10-01T08:02:46.069Z,98.20
2017-10-01T08:05:14.377Z,98.50
2017-10-01T08:07:43.450Z,98.20
2017-10-01T08:10:11.778Z,98.20
2017-10-01T08:12:40.098Z,99.20
2017-10-01T08:15:09.170Z,98.10
2017-10-01T08:17:38.256Z,95.80
2017-10-01T08:20:07.509Z,96.00
2017-10-01T08:22:36.634Z,93.50
2017-10-01T08:25:05.430Z,93.60
2017-10-01T08:27:33.738Z,94.80
2017-10-01T08:30:02.043Z,93.20
2017-10-01T08:32:31.140Z,90.90
2017-10-01T08:34:59.447Z,90.40
2017-10-01T08:37:27.829Z,91.90
2017-10-01T08:39:56.149Z,90.90
2017-10-01T08:42:24.460Z,90.30
2017-10-01T08:44:53.563Z,91.20
2017-10-01T08:47:22.985Z,91.30
2017-10-01T08:49:51.301Z,90.20
2017-10-01T08:52:20.408Z,87.50
2017-10-01T08:54:48.728Z,87.40
2017-10-01T08:57:17.028Z,87.90
2017-10-01T08:59:46.137Z,89.10
2017-10-01T09:02:14.436Z,88.20
2017-10-01T09:04:42.778Z,88.40
2017-10-01T09:07:11.118Z,86.50
2017-10-01T09:09:39.423Z,86.10
2017-10-01T09:12:07.718Z,86.40
2017-10-01T09:14:36.985Z,83.90
2017-10-01T09:17:05.604Z,84.90
2017-10-01T09:19:34.039Z,80.50
2017-10-01T09:22:02.361Z,80.70
2017-10-01T09:24:31.432Z,80.50
2017-10-01T09:27:00.659Z,82.40
2017-10-01T09:29:28.973Z,82.30
2017-10-01T09:31:57.278Z,81.30
2017-10-01T09:34:25.607Z,83.20
2017-10-01T09:36:53.949Z,82.10
2017-10-01T09:39:22.280Z,80.00
2017-10-01T09:41:51.364Z,70.10
2017-10-01T09:44:19.702Z,69.80
2017-10-01T09:46:48.174Z,66.90
2017-10-01T09:49:16.499Z,67.50
2017-10-01T09:51:45.601Z,73.80
2017-10-01T09:54:13.937Z,74.40
2017-10-01T09:56:42.243Z,70.20
2017-10-01T09:59:11.318Z,67.40
2017-10-01T10:01:40.426Z,65.30
2017-10-01T10:04:09.037Z,65.30
2017-10-01T10:06:37.366Z,63.20
2017-10-01T10:09:05.679Z,58.80
2017-10-01T10:11:34.854Z,60.10
2017-10-01T10:14:03.277Z,57.40
2017-10-01T10:16:31.605Z,58.20
2017-10-01T10:19:00.102Z,58.10
2017-10-01T10:21:28.447Z,60.30
2017-10-01T10:23:57.677Z,60.80
2017-10-01T10:26:26.165Z,60.80
2017-10-01T10:28:54.481Z,60.00
2017-10-01T10:31:22.796Z,57.70
2017-10-01T10:33:51.162Z,56.20
2017-10-01T10:36:19.454Z,58.60
2017-10-01T10:38:47.753Z,55.00
2017-10-01T10:41:16.082Z,58.10
2017-10-01T10:43:44.370Z,59.40
2017-10-01T10:46:12.732Z,58.00
2017-10-01T10:48:41.067Z,59.70
2017-10-01T10:51:09.362Z,61.30
2017-10-01T10:53:37.677Z,59.20
2017-10-01T10:56:05.998Z,59.80
2017-10-01T10:58:34.289Z,57.30
2017-10-01T11:01:02.596Z,56.20
2017-10-01T11:03:30.888Z,55.90
2017-10-01T11:05:59.214Z,57.60
2017-10-01T11:08:27.543Z,54.80
2017-10-01T11:10:55.881Z,54.50
2017-10-01T11:13:24.952Z,54.00
2017-10-01T11:15:54.044Z,53.80
2017-10-01T11:18:22.339Z,53.30
2017-10-01T11:20:50.662Z,52.80
2017-10-01T11:23:18.992Z,52.60
2017-10-01T11:25:47.284Z,52.00
2017-10-01T11:28:15.611Z,53.40
2017-10-01T11:30:44.001Z,52.90
2017-10-01T11:33:12.346Z,53.00
2017-10-01T11:35:41.428Z,54.00
2017-10-01T11:38:09.723Z,54.00
2017-10-01T11:40:38.042Z,52.00
2017-10-01T11:43:06.354Z,52.60
2017-10-01T11:45:34.656Z,52.10
2017-10-01T11:48:02.974Z,52.40
2017-10-01T11:50:31.295Z,51.20
2017-10-01T11:53:00.370Z,48.20
2017-10-01T11:55:28.665Z,48.20
2017-10-01T11:57:57.004Z,50.40
2017-10-01T12:00:25.300Z,51.20
2017-10-01T12:02:54.381Z,51.80
2017-10-01T12:05:22.711Z,51.60
2017-10-01T12:07:51.010Z,52.20
2017-10-01T12:10:19.347Z,51.00
2017-10-01T12:12:47.925Z,53.80
2017-10-01T12:15:16.225Z,50.60
2017-10-01T12:17:44.549Z,50.80
2017-10-01T12:20:13.609Z,52.80
2017-10-01T12:22:41.950Z,52.90
2017-10-01T12:25:10.257Z,51.60
2017-10-01T12:27:38.604Z,51.60
2017-10-01T12:30:06.911Z,52.00
2017-10-01T12:32:35.981Z,50.70
2017-10-01T12:35:04.308Z,50.70
2017-10-01T12:37:32.781Z,50.70
2017-10-01T12:40:01.508Z,51.80
2017-10-01T12:42:30.221Z,50.40
2017-10-01T12:44:58.541Z,52.00
2017-10-01T12:47:27.611Z,51.60
2017-10-01T12:49:55.954Z,51.50
2017-10-01T12:52:24.298Z,51.80
2017-10-01T12:54:53.377Z,51.30
2017-10-01T12:57:21.704Z,51.30
2017-10-01T12:59:50.035Z,50.20
2017-10-01T13:02:18.333Z,51.30
2017-10-01T13:04:47.441Z,54.30
2017-10-01T13:07:15.753Z,54.30
2017-10-01T13:09:44.069Z,50.00
2017-10-01T13:12:12.386Z,50.70
2017-10-01T13:14:41.473Z,53.80
2017-10-01T13:17:09.876Z,53.90
2017-10-01T13:19:38.169Z,55.10
2017-10-01T13:22:06.460Z,54.90
2017-10-01T13:24:34.793Z,54.60
2017-10-01T13:27:03.099Z,53.80
2017-10-01T13:29:32.373Z,53.70
2017-10-01T13:32:02.412Z,56.50
2017-10-01T13:34:31.345Z,55.70
2017-10-01T13:37:00.865Z,52.40
2017-10-01T13:39:29.180Z,52.40
2017-10-01T13:41:58.294Z,55.00
2017-10-01T13:44:26.622Z,55.00
2017-10-01T13:46:54.950Z,54.30
2017-10-01T13:49:24.016Z,51.80
2017-10-01T13:51:53.107Z,49.80
2017-10-01T13:54:21.409Z,49.80
2017-10-01T13:56:49.841Z,51.80
2017-10-01T13:59:18.162Z,52.30
2017-10-01T14:01:46.481Z,50.30
2017-10-01T14:04:14.773Z,49.20
2017-10-01T14:06:43.094Z,51.70
2017-10-01T14:09:12.185Z,52.30
2017-10-01T14:11:40.528Z,52.30
2017-10-01T14:14:09.631Z,54.10
2017-10-01T14:16:38.041Z,54.00
2017-10-01T14:19:08.217Z,54.40
2017-10-01T14:21:36.518Z,54.40
2017-10-01T14:24:04.849Z,54.30
2017-10-01T14:26:33.937Z,53.80
2017-10-01T14:29:02.319Z,53.80
2017-10-01T14:31:30.671Z,53.70
2017-10-01T14:33:58.987Z,52.20
2017-10-01T14:36:27.330Z,51.90
2017-10-01T14:38:55.631Z,53.40
2017-10-01T14:41:23.925Z,53.30
2017-10-01T14:43:52.325Z,54.10
2017-10-01T14:46:20.633Z,54.10
2017-10-01T14:48:48.989Z,55.10
2017-10-01T14:51:17.300Z,54.20
2017-10-01T14:53:46.370Z,53.60
2017-10-01T14:56:14.695Z,53.60
2017-10-01T14:58:42.984Z,54.70
2017-10-01T15:01:11.316Z,54.70
2017-10-01T15:03:39.753Z,53.90
2017-10-01T15:06:08.041Z,54.00
2017-10-01T15:08:37.124Z,54.40
2017-10-01T15:11:05.419Z,54.40
2017-10-01T15:13:33.749Z,55.00
2017-10-01T15:16:02.044Z,56.60
2017-10-01T15:18:31.377Z,57.20
2017-10-01T15:20:59.697Z,57.20
2017-10-01T15:23:28.017Z,56.10
2017-10-01T15:25:57.105Z,54.40
2017-10-01T15:28:25.434Z,54.40
2017-10-01T15:30:54.527Z,57.50
2017-10-01T15:33:22.820Z,57.50
2017-10-01T15:35:51.139Z,54.10
2017-10-01T15:38:19.449Z,53.70
2017-10-01T15:40:47.779Z,53.20
2017-10-01T15:43:16.863Z,53.40
2017-10-01T15:45:45.152Z,53.40
2017-10-01T15:48:13.484Z,54.10
2017-10-01T15:50:41.772Z,55.20
2017-10-01T15:53:10.083Z,54.70
2017-10-01T15:55:38.410Z,54.80
2017-10-01T15:58:06.710Z,55.50
2017-10-01T16:00:35.790Z,55.60
2017-10-01T16:03:04.890Z,55.90
2017-10-01T16:05:33.221Z,55.90
2017-10-01T16:08:02.406Z,55.60
2017-10-01T16:10:31.143Z,55.60
2017-10-01T16:13:00.232Z,57.80
2017-10-01T16:15:28.524Z,57.80
2017-10-01T16:17:57.690Z,59.10
2017-10-01T16:20:26.718Z,60.00
2017-10-01T16:22:55.698Z,60.90
2017-10-01T16:25:24.031Z,61.00
2017-10-01T16:27:52.365Z,62.10
2017-10-01T16:30:20.701Z,63.10
2017-10-01T16:32:49.786Z,64.20
2017-10-01T16:35:18.176Z,64.20
2017-10-01T16:37:47.680Z,65.00
2017-10-01T16:40:16.413Z,64.90
2017-10-01T16:42:44.737Z,62.10
2017-10-01T16:45:13.138Z,62.30
2017-10-01T16:47:41.430Z,62.90
2017-10-01T16:50:09.757Z,66.00
2017-10-01T16:52:38.894Z,66.50
2017-10-01T16:55:07.209Z,66.50
2017-10-01T16:57:35.530Z,68.00
2017-10-01T17:00:03.866Z,68.30
2017-10-01T17:02:32.388Z,65.10
2017-10-01T17:05:00.779Z,70.80
2017-10-01T17:07:29.105Z,70.70
2017-10-01T17:09:57.421Z,74.90
2017-10-01T17:12:26.493Z,74.50
2017-10-01T17:14:55.579Z,75.90
2017-10-01T17:17:23.914Z,75.80
2017-10-01T17:19:52.206Z,76.20
2017-10-01T17:22:20.563Z,74.10
2017-10-01T17:24:48.894Z,74.70
2017-10-01T17:27:17.211Z,75.90
2017-10-01T17:29:45.602Z,75.20
2017-10-01T17:32:13.928Z,78.90
2017-10-01T17:34:42.232Z,79.80
2017-10-01T17:37:11.328Z,80.50
2017-10-01T17:39:39.630Z,80.30
2017-10-01T17:42:07.949Z,80.80
2017-10-01T17:44:36.257Z,80.10
2017-10-01T17:47:05.371Z,81.80
2017-10-01T17:49:33.743Z,81.60
2017-10-01T17:52:02.041Z,82.30
2017-10-01T17:54:30.387Z,79.80
2017-10-01T17:56:58.696Z,82.50
2017-10-01T17:59:27.805Z,81.20
2017-10-01T18:01:56.171Z,81.10
2017-10-01T18:04:24.489Z,83.40
2017-10-01T18:06:52.840Z,83.00
2017-10-01T18:09:21.154Z,84.40
2017-10-01T18:11:49.479Z,82.60
2017-10-01T18:14:17.815Z,82.30
2017-10-01T18:16:46.183Z,83.60
2017-10-01T18:19:15.252Z,86.90
2017-10-01T18:21:44.512Z,86.80
2017-10-01T18:24:12.843Z,87.70
2017-10-01T18:26:41.168Z,86.20
2017-10-01T18:29:09.465Z,87.10
2017-10-01T18:31:37.803Z,87.50
2017-10-01T18:34:06.106Z,87.90
2017-10-01T18:36:34.524Z,88.20
2017-10-01T18:39:02.861Z,89.20
2017-10-01T18:41:31.162Z,89.50
2017-10-01T18:43:59.465Z,88.60
2017-10-01T18:46:27.791Z,88.80
2017-10-01T18:48:56.881Z,87.80
2017-10-01T18:51:25.994Z,87.60
2017-10-01T18:53:54.333Z,88.30
2017-10-01T18:56:22.654Z,86.70
2017-10-01T18:58:50.970Z,87.80
2017-10-01T19:01:19.364Z,90.40
2017-10-01T19:03:47.664Z,89.20
2017-10-01T19:06:16.360Z,88.50
2017-10-01T19:08:45.982Z,90.30
2017-10-01T19:11:14.289Z,90.20
2017-10-01T19:13:42.632Z,90.30
2017-10-01T19:16:10.933Z,91.80
2017-10-01T19:18:39.224Z,92.00
2017-10-01T19:21:07.561Z,91.40
2017-10-01T19:23:35.876Z,90.70
2017-10-01T19:26:04.211Z,91.90
2017-10-01T19:28:32.724Z,91.10
2017-10-01T19:31:01.151Z,92.50
2017-10-01T19:33:30.265Z,91.50
2017-10-01T19:35:58.635Z,91.50
2017-10-01T19:38:27.013Z,92.50
2017-10-01T19:40:55.354Z,92.50
2017-10-01T19:43:23.659Z,94.00
2017-10-01T19:45:51.976Z,94.30
2017-10-01T19:48:20.280Z,93.90
2017-10-01T19:50:48.606Z,93.60
2017-10-01T19:53:17.922Z,92.80
2017-10-01T19:55:46.249Z,92.90
2017-10-01T19:58:14.559Z,92.90
2017-10-01T20:00:43.655Z,95.70
2017-10-01T20:03:11.953Z,95.60
2017-10-01T20:05:40.257Z,96.00
2017-10-01T20:08:08.581Z,96.60
2017-10-01T20:10:36.879Z,96.10
2017-10-01T20:13:05.205Z,95.00
2017-10-01T20:15:34.276Z,96.20
2017-10-01T20:18:03.375Z,96.90
2017-10-01T20:20:31.703Z,96.90
2017-10-01T20:23:00.778Z,95.90
2017-10-01T20:25:29.896Z,96.20
2017-10-01T20:27:58.488Z,96.20
2017-10-01T20:30:26.787Z,97.40
2017-10-01T20:32:55.901Z,96.90
2017-10-01T20:35:24.205Z,97.00
2017-10-01T20:37:53.306Z,97.10
2017-10-01T20:40:21.601Z,97.10
2017-10-01T20:42:50.004Z,97.30
2017-10-01T20:45:18.339Z,98.50
2017-10-01T20:47:47.481Z,97.80
2017-10-01T20:50:16.210Z,97.50
2017-10-01T20:52:44.535Z,97.20
2017-10-01T20:55:12.832Z,96.30
2017-10-01T20:57:41.164Z,95.90
2017-10-01T21:00:09.498Z,96.90
2017-10-01T21:02:37.804Z,96.00
2017-10-01T21:05:06.894Z,97.40
2017-10-01T21:07:35.973Z,96.20
2017-10-01T21:10:04.318Z,96.10
2017-10-01T21:12:33.667Z,97.10
2017-10-01T21:15:01.962Z,97.00
2017-10-01T21:17:30.257Z,98.50
2017-10-01T21:19:58.616Z,98.10
2017-10-01T21:22:26.919Z,98.60
2017-10-01T21:24:55.216Z,97.90
2017-10-01T21:27:24.481Z,98.10
2017-10-01T21:29:52.780Z,97.40
2017-10-01T21:32:21.122Z,96.60
2017-10-01T21:34:50.192Z,97.90
2017-10-01T21:37:19.311Z,97.20
2017-10-01T21:39:47.613Z,97.20
2017-10-01T21:42:16.712Z,97.10
2017-10-01T21:44:45.029Z,97.10
2017-10-01T21:47:14.091Z,97.20
2017-10-01T21:49:42.404Z,97.10
2017-10-01T21:52:10.745Z,96.70
2017-10-01T21:54:39.076Z,96.90
2017-10-01T21:57:08.134Z,97.40
2017-10-01T21:59:37.222Z,98.90
2017-10-01T22:02:06.318Z,97.50
2017-10-01T22:04:34.702Z,97.50
2017-10-01T22:07:03.010Z,96.80
2017-10-01T22:09:32.089Z,96.20
2017-10-01T22:12:00.413Z,96.20
2017-10-01T22:14:28.740Z,99.50
2017-10-01T22:16:57.034Z,97.10
2017-10-01T22:19:25.353Z,96.80
2017-10-01T22:21:53.653Z,96.30
2017-10-01T22:24:22.749Z,96.40
2017-10-01T22:26:51.080Z,96.40
2017-10-01T22:29:20.169Z,97.50
2017-10-01T22:31:48.463Z,97.50
2017-10-01T22:34:16.810Z,98.50
2017-10-01T22:36:45.129Z,98.50
2017-10-01T22:39:14.224Z,99.60
2017-10-01T22:41:42.652Z,99.50
2017-10-01T22:44:11.754Z,99.90
2017-10-01T22:46:40.049Z,99.90
2017-10-01T22:49:08.400Z,99.90
2017-10-01T22:51:36.746Z,99.70
2017-10-01T22:54:05.039Z,98.70
2017-10-01T22:56:33.377Z,96.80
2017-10-01T22:59:02.474Z,99.00
2017-10-01T23:01:30.808Z,98.90
2017-10-01T23:04:00.067Z,95.60
2017-10-01T23:06:28.408Z,95.50
2017-10-01T23:08:57.485Z,96.10
2017-10-01T23:11:26.565Z,97.40
2017-10-01T23:13:55.653Z,98.40
2017-10-01T23:16:23.950Z,98.40
2017-10-01T23:18:53.200Z,97.90
2017-10-01T23:21:21.601Z,97.70
2017-10-01T23:23:49.906Z,98.50
2017-10-01T23:26:18.224Z,99.20
2017-10-01T23:28:47.290Z,98.70
2017-10-01T23:31:16.401Z,97.50
2017-10-01T23:33:44.703Z,97.10
2017-10-01T23:36:13.030Z,97.20
2017-10-01T23:38:41.352Z,96.10
2017-10-01T23:41:09.650Z,98.60
2017-10-01T23:43:37.959Z,99.70
2017-10-01T23:46:06.304Z,99.90
2017-10-01T23:48:34.629Z,99.90
2017-10-01T23:51:02.933Z,99.90
2017-10-01T23:53:31.266Z,99.90
2017-10-01T23:55:59.589Z,99.90
2017-10-01T23:58:28.668Z,99.90
